sensor_id;sensor_type;location;lat;lon;timestamp;pressure;altitude;pressure_sealevel;temperature;humidity
40205;BME280;26963;42.666;23.366;2023-01-08T00:02:08;95464.75;;;5.10;53.78
40205;BME280;26963;42.666;23.366;2023-01-08T00:04:34;95415.38;;;4.69;54.14
40205;BME280;26963;42.666;23.366;2023-01-08T00:06:59;95386.00;;;4.54;54.65
40205;BME280;26963;42.666;23.366;2023-01-08T00:09:25;95442.16;;;4.90;54.50
40205;BME280;26963;42.666;23.366;2023-01-08T00:11:50;95445.91;;;4.89;54.80
40205;BME280;26963;42.666;23.366;2023-01-08T00:14:16;95463.63;;;5.05;55.31
40205;BME280;26963;42.666;23.366;2023-01-08T00:16:41;95464.81;;;4.98;54.70
40205;BME280;26963;42.666;23.366;2023-01-08T00:19:07;95465.13;;;5.01;53.70
40205;BME280;26963;42.666;23.366;2023-01-08T00:21:33;95450.69;;;4.92;53.92
40205;BME280;26963;42.666;23.366;2023-01-08T00:23:58;95376.84;;;4.45;54.72
40205;BME280;26963;42.666;23.366;2023-01-08T00:26:24;95450.63;;;4.87;54.45
40205;BME280;26963;42.666;23.366;2023-01-08T00:28:49;95456.31;;;4.96;53.77
40205;BME280;26963;42.666;23.366;2023-01-08T00:31:15;95438.84;;;4.78;53.30
40205;BME280;26963;42.666;23.366;2023-01-08T00:33:40;95429.66;;;4.68;54.05
40205;BME280;26963;42.666;23.366;2023-01-08T00:36:14;95438.13;;;4.65;54.00
40205;BME280;26963;42.666;23.366;2023-01-08T00:38:41;95466.38;;;4.77;53.26
40205;BME280;26963;42.666;23.366;2023-01-08T00:41:07;95473.03;;;4.79;54.08
40205;BME280;26963;42.666;23.366;2023-01-08T00:43:33;95440.13;;;4.58;54.22
40205;BME280;26963;42.666;23.366;2023-01-08T00:45:59;95432.09;;;4.53;54.87
40205;BME280;26963;42.666;23.366;2023-01-08T00:48:24;95465.34;;;4.78;54.97
40205;BME280;26963;42.666;23.366;2023-01-08T00:50:51;95467.91;;;4.72;54.24
40205;BME280;26963;42.666;23.366;2023-01-08T00:53:20;95449.69;;;4.59;55.21
40205;BME280;26963;42.666;23.366;2023-01-08T00:55:46;95437.38;;;4.53;54.97
40205;BME280;26963;42.666;23.366;2023-01-08T00:58:12;95418.28;;;4.34;54.75
40205;BME280;26963;42.666;23.366;2023-01-08T01:00:38;95467.31;;;4.53;54.71
40205;BME280;26963;42.666;23.366;2023-01-08T01:03:04;95466.28;;;4.54;54.33
40205;BME280;26963;42.666;23.366;2023-01-08T01:05:30;95447.25;;;4.40;53.62
40205;BME280;26963;42.666;23.366;2023-01-08T01:07:56;95399.13;;;3.98;53.53
40205;BME280;26963;42.666;23.366;2023-01-08T01:10:24;95461.00;;;4.37;53.82
40205;BME280;26963;42.666;23.366;2023-01-08T01:12:50;95423.00;;;4.15;54.17
40205;BME280;26963;42.666;23.366;2023-01-08T01:15:17;95429.50;;;4.24;53.97
40205;BME280;26963;42.666;23.366;2023-01-08T01:17:44;95456.81;;;4.41;53.95
40205;BME280;26963;42.666;23.366;2023-01-08T01:20:13;95426.75;;;4.19;54.21
40205;BME280;26963;42.666;23.366;2023-01-08T01:22:40;95411.75;;;4.07;54.27
40205;BME280;26963;42.666;23.366;2023-01-08T01:25:07;95470.06;;;4.41;54.29
40205;BME280;26963;42.666;23.366;2023-01-08T01:27:33;95433.19;;;4.23;54.54
40205;BME280;26963;42.666;23.366;2023-01-08T01:29:58;95427.00;;;4.17;53.65
40205;BME280;26963;42.666;23.366;2023-01-08T01:32:24;95469.97;;;4.36;53.34
40205;BME280;26963;42.666;23.366;2023-01-08T01:34:49;95395.25;;;3.88;54.28
40205;BME280;26963;42.666;23.366;2023-01-08T01:37:15;95454.69;;;4.27;54.37
40205;BME280;26963;42.666;23.366;2023-01-08T01:39:44;95430.94;;;4.15;53.56
40205;BME280;26963;42.666;23.366;2023-01-08T01:42:12;95387.47;;;3.82;53.55
40205;BME280;26963;42.666;23.366;2023-01-08T01:44:58;95426.59;;;4.08;54.36
40205;BME280;26963;42.666;23.366;2023-01-08T01:47:35;95428.66;;;4.06;55.04
40205;BME280;26963;42.666;23.366;2023-01-08T01:50:10;95429.56;;;4.12;55.04
40205;BME280;26963;42.666;23.366;2023-01-08T01:52:43;95427.72;;;4.13;54.36
40205;BME280;26963;42.666;23.366;2023-01-08T01:55:12;95442.91;;;4.17;53.45
40205;BME280;26963;42.666;23.366;2023-01-08T01:57:38;95259.50;;;2.96;53.17
40205;BME280;26963;42.666;23.366;2023-01-08T02:00:06;95365.75;;;3.51;53.80
40205;BME280;26963;42.666;23.366;2023-01-08T02:02:33;95430.50;;;3.89;54.63
40205;BME280;26963;42.666;23.366;2023-01-08T02:05:00;95463.09;;;4.06;54.13
40205;BME280;26963;42.666;23.366;2023-01-08T02:10:00;95434.13;;;4.00;53.75
40205;BME280;26963;42.666;23.366;2023-01-08T02:12:31;95438.13;;;4.02;53.83
40205;BME280;26963;42.666;23.366;2023-01-08T02:20:20;95433.31;;;3.99;55.06
40205;BME280;26963;42.666;23.366;2023-01-08T02:23:09;95431.00;;;4.03;55.87
40205;BME280;26963;42.666;23.366;2023-01-08T02:28:40;95416.00;;;3.91;56.07
40205;BME280;26963;42.666;23.366;2023-01-08T02:31:09;95422.81;;;4.04;56.53
40205;BME280;26963;42.666;23.366;2023-01-08T02:33:37;95415.84;;;3.98;56.51
40205;BME280;26963;42.666;23.366;2023-01-08T02:36:37;95433.09;;;4.01;56.07
40205;BME280;26963;42.666;23.366;2023-01-08T02:39:12;95367.53;;;3.62;56.28
40205;BME280;26963;42.666;23.366;2023-01-08T02:42:05;95421.22;;;4.03;55.81
40205;BME280;26963;42.666;23.366;2023-01-08T02:47:09;95390.91;;;3.82;55.49
40205;BME280;26963;42.666;23.366;2023-01-08T02:49:38;95398.63;;;3.84;54.21
40205;BME280;26963;42.666;23.366;2023-01-08T02:52:11;95362.81;;;3.64;54.70
40205;BME280;26963;42.666;23.366;2023-01-08T02:54:38;95408.84;;;3.92;55.25
40205;BME280;26963;42.666;23.366;2023-01-08T02:57:10;95321.88;;;3.38;55.78
40205;BME280;26963;42.666;23.366;2023-01-08T02:59:38;95410.69;;;3.91;55.96
40205;BME280;26963;42.666;23.366;2023-01-08T03:02:05;95403.53;;;3.92;55.13
40205;BME280;26963;42.666;23.366;2023-01-08T03:04:36;95408.34;;;3.95;55.01
40205;BME280;26963;42.666;23.366;2023-01-08T03:07:04;95423.28;;;4.01;54.83
40205;BME280;26963;42.666;23.366;2023-01-08T03:09:29;95422.41;;;3.96;53.33
40205;BME280;26963;42.666;23.366;2023-01-08T03:11:59;95410.47;;;3.81;54.49
40205;BME280;26963;42.666;23.366;2023-01-08T03:14:44;95349.44;;;3.42;54.13
40205;BME280;26963;42.666;23.366;2023-01-08T03:17:19;95393.19;;;3.62;54.56
40205;BME280;26963;42.666;23.366;2023-01-08T03:19:56;95327.38;;;3.07;55.20
40205;BME280;26963;42.666;23.366;2023-01-08T03:22:24;95425.84;;;3.67;55.09
40205;BME280;26963;42.666;23.366;2023-01-08T03:24:52;95411.72;;;3.62;54.42
40205;BME280;26963;42.666;23.366;2023-01-08T03:27:25;95351.38;;;3.18;54.71
40205;BME280;26963;42.666;23.366;2023-01-08T03:29:56;95378.81;;;3.29;54.90
40205;BME280;26963;42.666;23.366;2023-01-08T03:32:24;95413.94;;;3.53;55.98
40205;BME280;26963;42.666;23.366;2023-01-08T03:34:54;95420.38;;;3.57;55.49
40205;BME280;26963;42.666;23.366;2023-01-08T03:37:26;95435.97;;;3.70;55.30
40205;BME280;26963;42.666;23.366;2023-01-08T03:39:59;95228.19;;;2.47;54.94
40205;BME280;26963;42.666;23.366;2023-01-08T03:42:27;95421.22;;;3.74;54.88
40205;BME280;26963;42.666;23.366;2023-01-08T03:44:55;95403.00;;;3.61;54.86
40205;BME280;26963;42.666;23.366;2023-01-08T03:47:21;95421.72;;;3.71;54.19
40205;BME280;26963;42.666;23.366;2023-01-08T03:49:50;95418.47;;;3.69;54.42
40205;BME280;26963;42.666;23.366;2023-01-08T03:52:23;95393.91;;;3.57;54.16
40205;BME280;26963;42.666;23.366;2023-01-08T03:54:49;95401.47;;;3.65;54.81
40205;BME280;26963;42.666;23.366;2023-01-08T03:57:15;95419.41;;;3.63;53.59
40205;BME280;26963;42.666;23.366;2023-01-08T03:59:40;95401.63;;;3.58;54.54
40205;BME280;26963;42.666;23.366;2023-01-08T04:02:06;95379.16;;;3.32;54.37
40205;BME280;26963;42.666;23.366;2023-01-08T04:04:31;95374.44;;;3.34;54.05
40205;BME280;26963;42.666;23.366;2023-01-08T04:06:57;95347.59;;;3.14;55.08
40205;BME280;26963;42.666;23.366;2023-01-08T04:09:22;95421.03;;;3.64;55.71
40205;BME280;26963;42.666;23.366;2023-01-08T04:11:48;95419.66;;;3.62;56.14
40205;BME280;26963;42.666;23.366;2023-01-08T04:14:13;95397.41;;;3.46;56.61
40205;BME280;26963;42.666;23.366;2023-01-08T04:16:39;95428.41;;;3.62;55.83
40205;BME280;26963;42.666;23.366;2023-01-08T04:19:04;95400.94;;;3.51;57.60
40205;BME280;26963;42.666;23.366;2023-01-08T04:21:30;95425.19;;;3.60;57.58
40205;BME280;26963;42.666;23.366;2023-01-08T04:23:55;95417.16;;;3.55;56.85
40205;BME280;26963;42.666;23.366;2023-01-08T04:26:21;95419.72;;;3.50;57.20
40205;BME280;26963;42.666;23.366;2023-01-08T04:28:47;95402.59;;;3.40;57.63
40205;BME280;26963;42.666;23.366;2023-01-08T04:31:12;95414.69;;;3.36;56.44
40205;BME280;26963;42.666;23.366;2023-01-08T04:33:38;95429.97;;;3.46;56.07
40205;BME280;26963;42.666;23.366;2023-01-08T04:36:04;95430.75;;;3.47;55.80
40205;BME280;26963;42.666;23.366;2023-01-08T04:38:29;95419.63;;;3.45;54.83
40205;BME280;26963;42.666;23.366;2023-01-08T04:40:59;95417.28;;;3.48;55.14
40205;BME280;26963;42.666;23.366;2023-01-08T04:43:25;95427.88;;;3.48;54.21
40205;BME280;26963;42.666;23.366;2023-01-08T04:45:51;95360.84;;;3.02;55.17
40205;BME280;26963;42.666;23.366;2023-01-08T04:48:17;95424.00;;;3.39;55.51
40205;BME280;26963;42.666;23.366;2023-01-08T04:50:42;95414.59;;;3.31;55.82
40205;BME280;26963;42.666;23.366;2023-01-08T04:53:08;95399.69;;;3.13;55.35
40205;BME280;26963;42.666;23.366;2023-01-08T04:55:33;95426.19;;;3.30;54.34
40205;BME280;26963;42.666;23.366;2023-01-08T04:57:59;95417.91;;;3.26;54.68
40205;BME280;26963;42.666;23.366;2023-01-08T05:00:24;95358.59;;;2.82;54.24
40205;BME280;26963;42.666;23.366;2023-01-08T05:02:50;95428.88;;;3.18;55.29
40205;BME280;26963;42.666;23.366;2023-01-08T05:05:15;95432.75;;;3.28;55.76
40205;BME280;26963;42.666;23.366;2023-01-08T05:07:44;95423.94;;;3.22;56.78
40205;BME280;26963;42.666;23.366;2023-01-08T05:10:09;95418.97;;;3.14;55.93
40205;BME280;26963;42.666;23.366;2023-01-08T05:12:35;95348.84;;;2.70;56.18
40205;BME280;26963;42.666;23.366;2023-01-08T05:15:00;95418.41;;;3.12;57.57
40205;BME280;26963;42.666;23.366;2023-01-08T05:17:26;95417.59;;;3.11;57.57
40205;BME280;26963;42.666;23.366;2023-01-08T05:19:55;95289.28;;;2.27;57.48
40205;BME280;26963;42.666;23.366;2023-01-08T05:22:20;95420.00;;;3.13;56.00
40205;BME280;26963;42.666;23.366;2023-01-08T05:24:46;95373.41;;;2.83;56.44
40205;BME280;26963;42.666;23.366;2023-01-08T05:27:14;95389.00;;;2.96;55.21
40205;BME280;26963;42.666;23.366;2023-01-08T05:29:40;95427.75;;;3.14;56.59
40205;BME280;26963;42.666;23.366;2023-01-08T05:32:15;95388.78;;;2.86;56.79
40205;BME280;26963;42.666;23.366;2023-01-08T05:34:44;95437.97;;;3.10;56.11
40205;BME280;26963;42.666;23.366;2023-01-08T05:37:14;95401.44;;;2.84;55.26
40205;BME280;26963;42.666;23.366;2023-01-08T05:39:39;95377.09;;;2.58;54.30
40205;BME280;26963;42.666;23.366;2023-01-08T05:42:05;95439.13;;;2.91;56.97
40205;BME280;26963;42.666;23.366;2023-01-08T05:44:30;95391.34;;;2.57;57.93
40205;BME280;26963;42.666;23.366;2023-01-08T05:46:56;95370.88;;;2.40;57.63
40205;BME280;26963;42.666;23.366;2023-01-08T05:49:22;95437.97;;;2.87;56.40
40205;BME280;26963;42.666;23.366;2023-01-08T05:51:48;95420.97;;;2.83;56.85
40205;BME280;26963;42.666;23.366;2023-01-08T05:54:14;95333.81;;;2.23;57.04
40205;BME280;26963;42.666;23.366;2023-01-08T05:56:39;95371.59;;;2.48;56.90
40205;BME280;26963;42.666;23.366;2023-01-08T05:59:12;95412.69;;;2.67;55.96
40205;BME280;26963;42.666;23.366;2023-01-08T06:01:38;95391.56;;;2.67;56.47
40205;BME280;26963;42.666;23.366;2023-01-08T06:04:03;95352.50;;;2.45;55.72
40205;BME280;26963;42.666;23.366;2023-01-08T06:06:29;95433.84;;;2.91;56.00
40205;BME280;26963;42.666;23.366;2023-01-08T06:08:54;95445.44;;;3.02;56.23
40205;BME280;26963;42.666;23.366;2023-01-08T06:11:20;95438.88;;;3.04;57.25
40205;BME280;26963;42.666;23.366;2023-01-08T06:13:45;95443.03;;;3.00;57.86
40205;BME280;26963;42.666;23.366;2023-01-08T06:16:14;95435.22;;;3.05;57.32
40205;BME280;26963;42.666;23.366;2023-01-08T06:18:44;95425.91;;;3.03;56.26
40205;BME280;26963;42.666;23.366;2023-01-08T06:21:09;95425.78;;;3.09;54.73
40205;BME280;26963;42.666;23.366;2023-01-08T06:23:38;95414.72;;;3.13;55.21
40205;BME280;26963;42.666;23.366;2023-01-08T06:26:03;95424.78;;;3.39;55.52
40205;BME280;26963;42.666;23.366;2023-01-08T06:28:29;95436.34;;;3.62;54.60
40205;BME280;26963;42.666;23.366;2023-01-08T06:30:59;95390.72;;;3.55;53.57
40205;BME280;26963;42.666;23.366;2023-01-08T06:33:24;95451.19;;;4.21;53.67
40205;BME280;26963;42.666;23.366;2023-01-08T06:35:50;95387.50;;;3.99;53.76
40205;BME280;26963;42.666;23.366;2023-01-08T06:38:16;95368.25;;;4.03;53.27
40205;BME280;26963;42.666;23.366;2023-01-08T06:40:44;95458.44;;;4.77;52.70
40205;BME280;26963;42.666;23.366;2023-01-08T06:43:10;95436.91;;;4.73;52.80
40205;BME280;26963;42.666;23.366;2023-01-08T06:45:35;95445.31;;;4.87;52.85
40205;BME280;26963;42.666;23.366;2023-01-08T06:48:02;95459.97;;;5.12;52.62
40205;BME280;26963;42.666;23.366;2023-01-08T06:50:29;95439.78;;;5.28;51.95
40205;BME280;26963;42.666;23.366;2023-01-08T06:52:55;95455.84;;;5.60;50.63
40205;BME280;26963;42.666;23.366;2023-01-08T06:55:22;95437.16;;;5.77;50.02
40205;BME280;26963;42.666;23.366;2023-01-08T06:57:53;95467.66;;;6.19;49.69
40205;BME280;26963;42.666;23.366;2023-01-08T07:00:19;95437.38;;;6.20;48.74
40205;BME280;26963;42.666;23.366;2023-01-08T07:02:46;95471.22;;;6.62;47.80
40205;BME280;26963;42.666;23.366;2023-01-08T07:05:12;95452.75;;;6.78;47.12
40205;BME280;26963;42.666;23.366;2023-01-08T07:07:37;95463.59;;;7.09;47.55
40205;BME280;26963;42.666;23.366;2023-01-08T07:10:03;95442.31;;;7.09;46.49
40205;BME280;26963;42.666;23.366;2023-01-08T07:12:29;95448.13;;;7.00;46.39
40205;BME280;26963;42.666;23.366;2023-01-08T07:14:54;95471.84;;;7.07;47.07
40205;BME280;26963;42.666;23.366;2023-01-08T07:17:20;95471.56;;;7.09;46.90
40205;BME280;26963;42.666;23.366;2023-01-08T07:19:45;95422.38;;;6.74;47.19
40205;BME280;26963;42.666;23.366;2023-01-08T07:22:14;95445.47;;;7.00;47.44
40205;BME280;26963;42.666;23.366;2023-01-08T07:24:39;95458.84;;;7.16;47.23
40205;BME280;26963;42.666;23.366;2023-01-08T07:27:05;95483.81;;;7.53;46.70
40205;BME280;26963;42.666;23.366;2023-01-08T07:29:30;95484.16;;;7.66;46.52
40205;BME280;26963;42.666;23.366;2023-01-08T07:31:56;95479.31;;;7.58;46.21
40205;BME280;26963;42.666;23.366;2023-01-08T07:34:21;95403.47;;;7.13;46.54
40205;BME280;26963;42.666;23.366;2023-01-08T07:36:47;95477.69;;;7.57;46.47
40205;BME280;26963;42.666;23.366;2023-01-08T07:39:13;95483.28;;;7.56;47.02
40205;BME280;26963;42.666;23.366;2023-01-08T07:41:38;95477.13;;;7.45;47.32
40205;BME280;26963;42.666;23.366;2023-01-08T07:44:04;95353.75;;;6.65;47.14
40205;BME280;26963;42.666;23.366;2023-01-08T07:46:29;95473.97;;;7.58;46.88
40205;BME280;26963;42.666;23.366;2023-01-08T07:48:55;95455.88;;;7.55;47.69
40205;BME280;26963;42.666;23.366;2023-01-08T07:51:21;95486.25;;;7.64;47.38
40205;BME280;26963;42.666;23.366;2023-01-08T07:53:50;95402.25;;;6.83;47.97
40205;BME280;26963;42.666;23.366;2023-01-08T07:56:16;95491.19;;;7.40;48.36
40205;BME280;26963;42.666;23.366;2023-01-08T07:58:44;95472.78;;;7.28;48.35
40205;BME280;26963;42.666;23.366;2023-01-08T08:01:10;95460.16;;;7.08;48.54
40205;BME280;26963;42.666;23.366;2023-01-08T08:03:39;95489.28;;;7.35;48.29
40205;BME280;26963;42.666;23.366;2023-01-08T08:06:06;95472.78;;;7.28;48.50
40205;BME280;26963;42.666;23.366;2023-01-08T08:08:32;95492.31;;;7.55;47.98
40205;BME280;26963;42.666;23.366;2023-01-08T08:10:57;95473.16;;;7.53;47.94
40205;BME280;26963;42.666;23.366;2023-01-08T08:13:23;95498.84;;;7.79;47.58
40205;BME280;26963;42.666;23.366;2023-01-08T08:15:48;95479.38;;;7.79;47.14
40205;BME280;26963;42.666;23.366;2023-01-08T08:18:14;95485.88;;;7.98;47.10
40205;BME280;26963;42.666;23.366;2023-01-08T08:20:39;95442.91;;;7.84;46.47
40205;BME280;26963;42.666;23.366;2023-01-08T08:23:07;95490.75;;;8.38;46.53
40205;BME280;26963;42.666;23.366;2023-01-08T08:25:33;95489.75;;;8.49;46.36
40205;BME280;26963;42.666;23.366;2023-01-08T08:28:00;95431.03;;;8.33;45.71
40205;BME280;26963;42.666;23.366;2023-01-08T08:30:28;95493.47;;;8.79;45.38
40205;BME280;26963;42.666;23.366;2023-01-08T08:32:54;95459.88;;;8.68;45.34
40205;BME280;26963;42.666;23.366;2023-01-08T08:35:25;95499.91;;;8.93;45.53
40205;BME280;26963;42.666;23.366;2023-01-08T08:37:55;95471.06;;;8.75;45.86
40205;BME280;26963;42.666;23.366;2023-01-08T08:40:21;95491.34;;;8.91;45.50
40205;BME280;26963;42.666;23.366;2023-01-08T08:42:47;95414.50;;;8.21;46.38
40205;BME280;26963;42.666;23.366;2023-01-08T08:45:12;95487.63;;;8.72;45.75
40205;BME280;26963;42.666;23.366;2023-01-08T08:47:38;95491.34;;;8.71;46.20
40205;BME280;26963;42.666;23.366;2023-01-08T08:50:05;95500.41;;;8.59;46.63
40205;BME280;26963;42.666;23.366;2023-01-08T08:52:32;95489.72;;;8.44;47.01
40205;BME280;26963;42.666;23.366;2023-01-08T08:54:58;95416.03;;;8.02;47.46
40205;BME280;26963;42.666;23.366;2023-01-08T08:57:25;95480.16;;;8.63;47.56
40205;BME280;26963;42.666;23.366;2023-01-08T08:59:51;95431.06;;;8.70;46.61
40205;BME280;26963;42.666;23.366;2023-01-08T09:02:20;95432.94;;;8.85;45.65
40205;BME280;26963;42.666;23.366;2023-01-08T09:04:45;95466.47;;;9.32;45.52
40205;BME280;26963;42.666;23.366;2023-01-08T09:07:14;95408.53;;;9.33;49.78
40205;BME280;26963;42.666;23.366;2023-01-08T09:09:39;95468.31;;;10.18;46.10
40205;BME280;26963;42.666;23.366;2023-01-08T09:12:05;95472.66;;;10.53;45.35
40205;BME280;26963;42.666;23.366;2023-01-08T09:14:31;95407.22;;;10.35;43.24
40205;BME280;26963;42.666;23.366;2023-01-08T09:16:57;95465.25;;;11.09;42.72
40205;BME280;26963;42.666;23.366;2023-01-08T09:19:22;95460.34;;;11.21;42.16
40205;BME280;26963;42.666;23.366;2023-01-08T09:21:48;95444.72;;;11.29;41.50
40205;BME280;26963;42.666;23.366;2023-01-08T09:24:15;95417.16;;;10.99;42.02
40205;BME280;26963;42.666;23.366;2023-01-08T09:26:40;95435.28;;;11.07;42.24
40205;BME280;26963;42.666;23.366;2023-01-08T09:29:09;95443.00;;;11.14;42.22
40205;BME280;26963;42.666;23.366;2023-01-08T09:31:34;95386.44;;;10.91;41.95
40205;BME280;26963;42.666;23.366;2023-01-08T09:34:00;95443.13;;;11.28;42.10
40205;BME280;26963;42.666;23.366;2023-01-08T09:36:25;95390.09;;;11.00;42.01
40205;BME280;26963;42.666;23.366;2023-01-08T09:38:51;95380.16;;;11.06;42.08
40205;BME280;26963;42.666;23.366;2023-01-08T09:43:44;95433.72;;;11.54;41.03
40205;BME280;26963;42.666;23.366;2023-01-08T09:46:14;95379.50;;;11.14;41.77
40205;BME280;26963;42.666;23.366;2023-01-08T09:48:40;95422.19;;;11.54;42.01
40205;BME280;26963;42.666;23.366;2023-01-08T09:51:15;95417.75;;;11.68;41.83
40205;BME280;26963;42.666;23.366;2023-01-08T09:53:42;95393.34;;;11.70;41.95
40205;BME280;26963;42.666;23.366;2023-01-08T09:56:16;95411.09;;;12.09;40.55
40205;BME280;26963;42.666;23.366;2023-01-08T09:58:49;95411.59;;;12.11;40.70
40205;BME280;26963;42.666;23.366;2023-01-08T10:01:41;95377.88;;;12.43;39.19
40205;BME280;26963;42.666;23.366;2023-01-08T10:04:23;95378.66;;;13.51;37.46
40205;BME280;26963;42.666;23.366;2023-01-08T10:06:56;95292.47;;;12.92;37.40
40205;BME280;26963;42.666;23.366;2023-01-08T10:09:28;95391.72;;;13.44;37.96
40205;BME280;26963;42.666;23.366;2023-01-08T10:11:58;95368.19;;;13.50;37.47
40205;BME280;26963;42.666;23.366;2023-01-08T10:14:30;95350.75;;;13.19;37.41
40205;BME280;26963;42.666;23.366;2023-01-08T10:16:58;95380.19;;;13.11;37.90
40205;BME280;26963;42.666;23.366;2023-01-08T10:19:25;95382.19;;;13.05;38.04
40205;BME280;26963;42.666;23.366;2023-01-08T10:21:50;95317.06;;;12.52;38.49
40205;BME280;26963;42.666;23.366;2023-01-08T10:24:35;95337.78;;;12.66;38.62
40205;BME280;26963;42.666;23.366;2023-01-08T10:27:10;95359.38;;;12.75;38.91
40205;BME280;26963;42.666;23.366;2023-01-08T10:29:40;95351.81;;;12.91;38.64
40205;BME280;26963;42.666;23.366;2023-01-08T10:32:14;95363.59;;;12.95;38.25
40205;BME280;26963;42.666;23.366;2023-01-08T10:37:37;95326.97;;;12.99;38.33
40205;BME280;26963;42.666;23.366;2023-01-08T10:40:21;95346.19;;;13.34;37.65
40205;BME280;26963;42.666;23.366;2023-01-08T10:42:51;95338.31;;;13.24;37.62
40205;BME280;26963;42.666;23.366;2023-01-08T10:45:20;95328.84;;;13.12;37.53
40205;BME280;26963;42.666;23.366;2023-01-08T10:47:49;95300.41;;;13.11;37.46
40205;BME280;26963;42.666;23.366;2023-01-08T10:50:27;95254.44;;;13.13;37.25
40205;BME280;26963;42.666;23.366;2023-01-08T10:53:04;95316.75;;;13.29;37.43
40205;BME280;26963;42.666;23.366;2023-01-08T10:55:32;95255.84;;;12.82;37.00
40205;BME280;26963;42.666;23.366;2023-01-08T10:58:03;95236.44;;;12.57;37.59
40205;BME280;26963;42.666;23.366;2023-01-08T11:00:31;95255.53;;;12.56;38.21
40205;BME280;26963;42.666;23.366;2023-01-08T11:02:59;95293.25;;;12.79;38.28
40205;BME280;26963;42.666;23.366;2023-01-08T11:05:31;95303.59;;;12.85;38.62
40205;BME280;26963;42.666;23.366;2023-01-08T11:07:58;95304.66;;;12.84;38.40
40205;BME280;26963;42.666;23.366;2023-01-08T11:10:26;95303.34;;;12.68;38.75
40205;BME280;26963;42.666;23.366;2023-01-08T11:12:55;95295.00;;;12.55;39.65
40205;BME280;26963;42.666;23.366;2023-01-08T11:17:46;95290.94;;;12.72;39.78
40205;BME280;26963;42.666;23.366;2023-01-08T11:20:21;95300.00;;;12.76;38.55
40205;BME280;26963;42.666;23.366;2023-01-08T11:22:48;95294.41;;;12.72;38.79
40205;BME280;26963;42.666;23.366;2023-01-08T11:25:21;95273.75;;;12.59;38.62
40205;BME280;26963;42.666;23.366;2023-01-08T11:27:49;95293.84;;;12.89;38.73
40205;BME280;26963;42.666;23.366;2023-01-08T11:30:22;95276.34;;;12.78;38.96
40205;BME280;26963;42.666;23.366;2023-01-08T11:32:52;95254.56;;;12.66;38.68
40205;BME280;26963;42.666;23.366;2023-01-08T11:35:24;95230.38;;;12.52;38.60
40205;BME280;26963;42.666;23.366;2023-01-08T11:37:55;95302.06;;;12.79;38.54
40205;BME280;26963;42.666;23.366;2023-01-08T11:40:32;95286.78;;;12.80;38.65
40205;BME280;26963;42.666;23.366;2023-01-08T11:53:34;95253.72;;;12.51;38.90
40205;BME280;26963;42.666;23.366;2023-01-08T11:56:29;95196.72;;;12.13;39.14
40205;BME280;26963;42.666;23.366;2023-01-08T12:01:52;95238.25;;;12.15;39.52
40205;BME280;26963;42.666;23.366;2023-01-08T12:04:35;95262.22;;;12.26;39.83
40205;BME280;26963;42.666;23.366;2023-01-08T12:07:31;95195.81;;;11.84;40.03
40205;BME280;26963;42.666;23.366;2023-01-08T12:16:02;95241.03;;;12.71;39.58
40205;BME280;26963;42.666;23.366;2023-01-08T12:18:57;95242.31;;;12.73;38.79
40205;BME280;26963;42.666;23.366;2023-01-08T12:35:38;95228.50;;;12.80;38.68
40205;BME280;26963;42.666;23.366;2023-01-08T12:38:25;95217.94;;;12.84;38.34
40205;BME280;26963;42.666;23.366;2023-01-08T12:40:57;95180.69;;;12.40;38.58
40205;BME280;26963;42.666;23.366;2023-01-08T12:46:28;95213.00;;;12.77;38.73
40205;BME280;26963;42.666;23.366;2023-01-08T12:48:56;95211.28;;;12.81;38.76
40205;BME280;26963;42.666;23.366;2023-01-08T12:56:33;95203.94;;;13.01;37.97
40205;BME280;26963;42.666;23.366;2023-01-08T13:07:47;95199.31;;;13.15;37.86
40205;BME280;26963;42.666;23.366;2023-01-08T13:12:56;95140.28;;;12.87;37.69
40205;BME280;26963;42.666;23.366;2023-01-08T13:15:27;95120.34;;;12.66;37.45
40205;BME280;26963;42.666;23.366;2023-01-08T13:17:56;95179.84;;;12.96;37.82
40205;BME280;26963;42.666;23.366;2023-01-08T13:20:27;95163.72;;;12.96;37.98
40205;BME280;26963;42.666;23.366;2023-01-08T13:22:56;95181.03;;;13.03;37.89
40205;BME280;26963;42.666;23.366;2023-01-08T13:27:48;95189.19;;;12.98;37.90
40205;BME280;26963;42.666;23.366;2023-01-08T13:32:55;95175.88;;;12.79;38.44
40205;BME280;26963;42.666;23.366;2023-01-08T13:35:25;95195.38;;;12.85;38.59
40205;BME280;26963;42.666;23.366;2023-01-08T13:43:20;95158.59;;;12.57;38.41
40205;BME280;26963;42.666;23.366;2023-01-08T13:46:02;95167.78;;;12.56;38.47
40205;BME280;26963;42.666;23.366;2023-01-08T13:48:47;95143.88;;;12.41;38.86
40205;BME280;26963;42.666;23.366;2023-01-08T13:51:44;95153.03;;;12.40;38.80
40205;BME280;26963;42.666;23.366;2023-01-08T13:56:45;95177.09;;;12.45;39.28
40205;BME280;26963;42.666;23.366;2023-01-08T14:02:22;95184.03;;;12.46;39.17
40205;BME280;26963;42.666;23.366;2023-01-08T14:04:49;95179.88;;;12.40;39.20
40205;BME280;26963;42.666;23.366;2023-01-08T14:07:15;95172.72;;;12.21;39.44
40205;BME280;26963;42.666;23.366;2023-01-08T14:09:44;95195.56;;;12.19;39.62
40205;BME280;26963;42.666;23.366;2023-01-08T14:12:15;95192.75;;;12.10;39.86
40205;BME280;26963;42.666;23.366;2023-01-08T14:14:50;95173.88;;;11.82;40.46
40205;BME280;26963;42.666;23.366;2023-01-08T14:17:17;95168.00;;;11.80;40.49
40205;BME280;26963;42.666;23.366;2023-01-08T14:19:44;95099.31;;;11.18;40.83
40205;BME280;26963;42.666;23.366;2023-01-08T14:22:16;95145.50;;;11.29;40.94
40205;BME280;26963;42.666;23.366;2023-01-08T14:24:43;95183.59;;;11.45;41.46
40205;BME280;26963;42.666;23.366;2023-01-08T14:27:24;95173.44;;;11.42;41.55
40205;BME280;26963;42.666;23.366;2023-01-08T14:29:51;95184.59;;;11.49;41.76
40205;BME280;26963;42.666;23.366;2023-01-08T14:32:19;95191.03;;;11.48;41.56
40205;BME280;26963;42.666;23.366;2023-01-08T14:34:47;95188.13;;;11.45;42.14
40205;BME280;26963;42.666;23.366;2023-01-08T14:37:14;95179.97;;;11.36;41.86